createdAt,value
2023-02-02T00:00:30.909Z,97567.53
2023-02-02T00:01:33.720Z,97574.44
2023-02-02T00:02:36.825Z,97572.75
2023-02-02T00:03:39.930Z,97562.47
2023-02-02T00:04:42.781Z,97572.88
2023-02-02T00:05:49.322Z,97571.22
2023-02-02T00:06:53.358Z,97567.84
2023-02-02T00:07:55.127Z,97574.72
2023-02-02T00:09:01.078Z,97565.28
2023-02-02T00:10:02.899Z,97570.41
2023-02-02T00:11:06.311Z,97567.84
2023-02-02T00:12:09.526Z,97562.69
2023-02-02T00:13:12.603Z,97561.06
2023-02-02T00:14:15.899Z,97574.72
2023-02-02T00:15:17.923Z,97561.88
2023-02-02T00:16:43.488Z,97566.19
2023-02-02T00:17:45.250Z,97574.00
2023-02-02T00:18:48.109Z,97572.34
2023-02-02T00:19:49.910Z,97567.22
2023-02-02T00:20:53.695Z,97580.06
2023-02-02T00:21:56.212Z,97568.03
2023-02-02T00:22:58.949Z,97569.78
2023-02-02T00:24:02.130Z,97575.66
2023-02-02T00:25:05.392Z,97573.91
2023-02-02T00:26:07.196Z,97572.16
2023-02-02T00:27:10.258Z,97570.41
2023-02-02T00:28:12.225Z,97578.13
2023-02-02T00:29:17.516Z,97579.88
2023-02-02T00:30:19.925Z,97579.88
2023-02-02T00:31:23.276Z,97572.16
2023-02-02T00:32:25.137Z,97574.81
2023-02-02T00:33:27.884Z,97585.03
2023-02-02T00:34:30.087Z,97582.44
2023-02-02T00:35:32.917Z,97585.03
2023-02-02T00:36:34.729Z,97586.78
2023-02-02T00:37:37.574Z,97589.34
2023-02-02T00:38:39.329Z,97582.44
2023-02-02T00:39:43.410Z,97584.09
2023-02-02T00:40:45.458Z,97584.09
2023-02-02T00:41:48.767Z,97582.34
2023-02-02T00:42:50.611Z,97583.16
2023-02-02T00:44:07.385Z,97575.44
2023-02-02T00:45:17.845Z,97585.84
2023-02-02T00:46:20.547Z,97589.34
2023-02-02T00:47:22.543Z,97579.88
2023-02-02T00:48:26.133Z,97585.03
2023-02-02T00:49:27.985Z,97589.34
2023-02-02T00:50:31.020Z,97579.06
2023-02-02T00:51:32.814Z,97579.88
2023-02-02T00:52:35.678Z,97590.97
2023-02-02T00:53:37.534Z,97588.41
2023-02-02T00:54:40.260Z,97591.81
2023-02-02T00:55:43.685Z,97585.03
2023-02-02T00:56:46.632Z,97588.41
2023-02-02T00:57:48.450Z,97587.47
2023-02-02T00:58:51.210Z,97588.31
2023-02-02T00:59:53.057Z,97591.81
2023-02-02T01:00:55.848Z,97588.31
2023-02-02T01:01:57.814Z,97589.13
2023-02-02T01:03:04.362Z,97590.75
2023-02-02T01:04:06.519Z,97592.44
2023-02-02T01:05:09.861Z,97593.25
2023-02-02T01:06:12.425Z,97599.22
2023-02-02T01:07:15.258Z,97590.59
2023-02-02T01:08:17.095Z,97600.03
2023-02-02T01:09:20.120Z,97593.97
2023-02-02T01:10:22.967Z,97582.03
2023-02-02T01:11:27.281Z,97582.75
2023-02-02T01:12:29.216Z,97589.56
2023-02-02T01:13:31.979Z,97589.56
2023-02-02T01:14:33.751Z,97582.69
2023-02-02T01:15:38.033Z,97597.06
2023-02-02T01:16:39.908Z,97589.34
2023-02-02T01:17:42.968Z,97592.69
2023-02-02T01:18:44.817Z,97595.25
2023-02-02T01:19:47.631Z,97586.59
2023-02-02T01:20:57.146Z,97586.50
2023-02-02T01:22:00.254Z,97588.13
2023-02-02T01:23:02.528Z,97591.63
2023-02-02T01:24:05.505Z,97583.81
2023-02-02T01:25:07.932Z,97594.09
2023-02-02T01:26:12.165Z,97586.38
2023-02-02T01:27:15.294Z,97590.63
2023-02-02T01:28:18.270Z,97595.78
2023-02-02T01:29:21.208Z,97588.06
2023-02-02T01:30:23.984Z,97594.84
2023-02-02T01:31:26.052Z,97592.34
2023-02-02T01:32:28.785Z,97588.06
2023-02-02T01:33:30.849Z,97593.19
2023-02-02T01:34:33.651Z,97591.44
2023-02-02T01:35:35.458Z,97583.72
2023-02-02T01:36:38.226Z,97588.75
2023-02-02T01:37:40.207Z,97597.31
2023-02-02T01:38:43.693Z,97598.13
2023-02-02T01:39:45.830Z,97599.78
2023-02-02T01:40:49.519Z,97605.72
2023-02-02T01:41:51.327Z,97600.59
2023-02-02T01:42:58.441Z,97603.09
2023-02-02T01:44:01.739Z,97604.00
2023-02-02T01:45:28.789Z,97601.34
2023-02-02T01:46:32.295Z,97608.22
2023-02-02T01:47:38.537Z,97603.16
2023-02-02T01:48:42.124Z,97603.91
2023-02-02T01:49:45.008Z,97593.50
2023-02-02T01:50:48.400Z,97607.09
2023-02-02T01:51:52.723Z,97607.94
2023-02-02T01:52:57.498Z,97603.59
2023-02-02T01:54:01.154Z,97611.22
2023-02-02T01:55:08.553Z,97612.84
2023-02-02T01:56:13.854Z,97611.94
2023-02-02T01:57:18.858Z,97610.19
2023-02-02T01:58:25.523Z,97603.38
2023-02-02T01:59:28.038Z,97604.94
2023-02-02T02:00:30.847Z,97610.91
2023-02-02T02:01:32.789Z,97606.47
2023-02-02T02:02:56.610Z,97609.16
2023-02-02T02:03:58.811Z,97610.00
2023-02-02T02:05:03.219Z,97611.63
2023-02-02T02:06:07.799Z,97620.28
2023-02-02T02:07:10.961Z,97621.09
2023-02-02T02:08:15.596Z,97622.75
2023-02-02T02:09:18.937Z,97628.72
2023-02-02T02:10:20.737Z,97623.56
2023-02-02T02:11:24.105Z,97621.84
2023-02-02T02:12:26.359Z,97628.63
2023-02-02T02:13:45.428Z,97632.03
2023-02-02T02:15:08.051Z,97636.34
2023-02-02T02:16:20.424Z,97625.25
2023-02-02T02:17:38.043Z,97629.56
2023-02-02T02:18:46.901Z,97626.88
2023-02-02T02:20:43.333Z,97626.06
2023-02-02T02:22:11.612Z,97633.84
2023-02-02T02:23:54.711Z,97637.34
2023-02-02T02:25:36.681Z,97633.13
2023-02-02T02:27:04.752Z,97633.97
2023-02-02T02:28:44.329Z,97644.16
2023-02-02T02:30:16.831Z,97641.50
2023-02-02T02:31:56.973Z,97647.47
2023-02-02T02:33:02.684Z,97646.53
2023-02-02T02:34:08.852Z,97636.13
2023-02-02T02:35:15.942Z,97644.66
2023-02-02T02:36:21.355Z,97646.25
2023-02-02T02:37:30.383Z,97645.19
2023-02-02T02:38:38.179Z,97647.78
2023-02-02T02:39:44.983Z,97646.75
2023-02-02T02:40:52.011Z,97649.22
2023-02-02T02:41:56.625Z,97644.81
2023-02-02T02:43:00.774Z,97654.91
2023-02-02T02:44:07.286Z,97660.03
2023-02-02T02:45:11.695Z,97655.81
2023-02-02T02:46:13.846Z,97655.72
2023-02-02T02:47:18.657Z,97649.66
2023-02-02T02:48:20.482Z,97656.34
2023-02-02T02:49:23.269Z,97648.63
2023-02-02T02:50:25.301Z,97654.47
2023-02-02T02:51:42.800Z,97658.72
2023-02-02T02:52:49.348Z,97659.63
2023-02-02T02:53:51.533Z,97660.50
2023-02-02T02:54:55.517Z,97658.72
2023-02-02T02:56:06.561Z,97660.38
2023-02-02T02:57:27.130Z,97661.31
2023-02-02T02:58:36.620Z,97659.56
2023-02-02T02:59:46.712Z,97656.97
2023-02-02T03:00:59.020Z,97665.53
2023-02-02T03:02:08.239Z,97665.53
2023-02-02T03:03:22.150Z,97669.75
2023-02-02T03:04:29.224Z,97659.44
2023-02-02T03:05:35.060Z,97671.38
2023-02-02T03:06:41.874Z,97672.19
2023-02-02T03:07:48.651Z,97670.44
2023-02-02T03:08:53.680Z,97673.03
2023-02-02T03:09:57.931Z,97669.63
2023-02-02T03:11:00.093Z,97669.56
2023-02-02T03:12:03.260Z,97666.16
2023-02-02T03:13:07.898Z,97665.31
2023-02-02T03:14:10.881Z,97667.88
2023-02-02T03:15:13.803Z,97672.19
2023-02-02T03:16:17.806Z,97680.84
2023-02-02T03:17:19.638Z,97676.66
2023-02-02T03:18:25.735Z,97676.66
2023-02-02T03:19:27.611Z,97680.16
2023-02-02T03:20:30.442Z,97678.41
2023-02-02T03:21:32.568Z,97682.72
2023-02-02T03:22:35.632Z,97681.91
2023-02-02T03:23:38.570Z,97678.41
2023-02-02T03:24:41.310Z,97681.91
2023-02-02T03:25:43.894Z,97677.75
2023-02-02T03:26:47.201Z,97683.03
2023-02-02T03:27:49.104Z,97684.78
2023-02-02T03:28:54.871Z,97682.28
2023-02-02T03:29:56.687Z,97677.25
2023-02-02T03:31:00.489Z,97680.63
2023-02-02T03:32:02.490Z,97690.94
2023-02-02T03:33:06.164Z,97678.16
2023-02-02T03:34:09.302Z,97690.22
2023-02-02T03:35:12.155Z,97681.69
2023-02-02T03:36:13.946Z,97677.34
2023-02-02T03:37:17.372Z,97685.06
2023-02-02T03:38:19.452Z,97674.88
2023-02-02T03:39:22.249Z,97671.38
2023-02-02T03:40:24.041Z,97683.22
2023-02-02T03:41:45.260Z,97672.19
2023-02-02T03:42:47.054Z,97675.59
2023-02-02T03:43:49.916Z,97672.19
2023-02-02T03:44:51.823Z,97667.88
2023-02-02T03:45:58.418Z,97678.06
2023-02-02T03:47:00.602Z,97678.06
2023-02-02T03:48:04.740Z,97678.06
2023-02-02T03:49:07.533Z,97677.25
2023-02-02T03:50:11.640Z,97670.34
2023-02-02T03:51:16.218Z,97676.31
2023-02-02T03:52:18.062Z,97681.44
2023-02-02T03:53:20.999Z,97678.81
2023-02-02T03:54:22.935Z,97675.28
2023-02-02T03:55:25.979Z,97674.47
2023-02-02T03:56:27.882Z,97676.13
2023-02-02T03:57:31.026Z,97676.13
2023-02-02T03:58:32.848Z,97677.75
2023-02-02T03:59:35.580Z,97678.59
2023-02-02T04:00:37.502Z,97673.44
2023-02-02T04:01:40.349Z,97663.13
2023-02-02T04:02:42.501Z,97673.34
2023-02-02T04:03:46.277Z,97675.81
2023-02-02T04:04:48.156Z,97676.75
2023-02-02T04:05:52.374Z,97673.25
2023-02-02T04:06:54.226Z,97671.38
2023-02-02T04:07:57.024Z,97683.31
2023-02-02T04:08:58.779Z,97662.72
2023-02-02T04:10:01.595Z,97674.69
2023-02-02T04:11:03.398Z,97670.44
2023-02-02T04:12:06.401Z,97671.31
2023-02-02T04:13:08.283Z,97672.13
2023-02-02T04:14:11.241Z,97666.03
2023-02-02T04:15:13.031Z,97672.03
2023-02-02T04:16:16.337Z,97668.63
2023-02-02T04:17:18.205Z,97676.34
2023-02-02T04:18:20.956Z,97672.84
2023-02-02T04:19:23.124Z,97677.97
2023-02-02T04:20:25.861Z,97677.97
2023-02-02T04:21:28.989Z,97674.47
2023-02-02T04:22:31.860Z,97670.16
2023-02-02T04:23:33.773Z,97672.84
2023-02-02T04:24:38.044Z,97673.66
2023-02-02T04:25:39.996Z,97670.25
2023-02-02T04:26:43.011Z,97672.84
2023-02-02T04:27:44.781Z,97671.19
2023-02-02T04:28:47.631Z,97660.91
2023-02-02T04:29:49.503Z,97670.25
2023-02-02T04:30:53.228Z,97662.53
2023-02-02T04:31:55.148Z,97667.69
2023-02-02T04:32:57.963Z,97671.09
2023-02-02T04:34:00.507Z,97667.56
2023-02-02T04:35:03.718Z,97671.91
2023-02-02T04:36:06.240Z,97671.91
2023-02-02T04:37:10.371Z,97669.34
2023-02-02T04:38:12.279Z,97670.97
2023-02-02T04:39:15.104Z,97667.56
2023-02-02T04:40:17.019Z,97654.72
2023-02-02T04:41:20.671Z,97664.19
2023-02-02T04:42:22.569Z,97665.94
2023-02-02T04:43:25.391Z,97666.75
2023-02-02T04:44:27.677Z,97668.50
2023-02-02T04:45:30.508Z,97675.31
2023-02-02T04:46:32.417Z,97673.66
2023-02-02T04:47:35.611Z,97671.09
2023-02-02T04:48:37.760Z,97677.97
2023-02-02T04:49:40.617Z,97670.25
2023-02-02T04:50:42.446Z,97678.09
2023-02-02T04:51:45.223Z,97672.94
2023-02-02T04:52:49.363Z,97669.56
2023-02-02T04:53:51.543Z,97674.69
2023-02-02T04:54:54.437Z,97673.03
2023-02-02T04:55:56.377Z,97668.72
2023-02-02T04:56:59.186Z,97678.28
2023-02-02T04:58:01.016Z,97674.78
2023-02-02T04:59:03.841Z,97672.19
2023-02-02T05:00:07.193Z,97676.53
2023-02-02T05:01:11.099Z,97672.19
2023-02-02T05:02:12.953Z,97671.38
2023-02-02T05:03:15.741Z,97672.31
2023-02-02T05:04:17.496Z,97672.19
2023-02-02T05:05:20.551Z,97679.84
2023-02-02T05:06:22.646Z,97674.78
2023-02-02T05:07:25.484Z,97680.75
2023-02-02T05:08:28.948Z,97675.72
2023-02-02T05:09:50.130Z,97680.84
2023-02-02T05:10:51.982Z,97680.03
2023-02-02T05:11:54.696Z,97680.03
2023-02-02T05:12:56.562Z,97680.75
2023-02-02T05:13:59.450Z,97682.63
2023-02-02T05:15:02.095Z,97675.72
2023-02-02T05:16:05.422Z,97675.72
2023-02-02T05:17:07.224Z,97677.28
2023-02-02T05:18:09.932Z,97675.59
2023-02-02T05:19:12.141Z,97667.88
2023-02-02T05:20:15.058Z,97673.88
2023-02-02T05:21:16.872Z,97675.53
2023-02-02T05:22:19.696Z,97675.53
2023-02-02T05:23:21.572Z,97670.25
2023-02-02T05:24:27.553Z,97670.25
2023-02-02T05:25:29.296Z,97669.34
2023-02-02T05:26:32.321Z,97670.16
2023-02-02T05:27:34.219Z,97665.81
2023-02-02T05:28:37.001Z,97665.81
2023-02-02T05:29:38.999Z,97668.41
2023-02-02T05:30:41.746Z,97663.25
2023-02-02T05:31:43.982Z,97660.69
2023-02-02T05:32:47.175Z,97659.78
2023-02-02T05:33:48.951Z,97665.81
2023-02-02T05:34:51.780Z,97664.06
2023-02-02T05:35:53.633Z,97659.78
2023-02-02T05:36:56.851Z,97661.50
2023-02-02T05:37:59.381Z,97664.00
2023-02-02T05:39:02.403Z,97656.28
2023-02-02T05:40:06.317Z,97661.41
2023-02-02T05:41:09.110Z,97663.88
2023-02-02T05:42:31.039Z,97665.63
2023-02-02T05:43:33.453Z,97656.16
2023-02-02T05:44:36.234Z,97656.97
2023-02-02T05:45:38.131Z,97662.13
2023-02-02T05:46:41.445Z,97660.50
2023-02-02T05:47:43.404Z,97662.94
2023-02-02T05:48:46.190Z,97663.78
2023-02-02T05:49:48.018Z,97668.09
2023-02-02T05:50:59.015Z,97662.88
2023-02-02T05:52:01.884Z,97668.03
2023-02-02T05:53:04.175Z,97665.44
2023-02-02T05:54:07.133Z,97664.59
2023-02-02T05:55:11.968Z,97668.91
2023-02-02T05:56:15.758Z,97668.91
2023-02-02T05:57:18.547Z,97666.34
2023-02-02T05:58:20.686Z,97669.66
2023-02-02T05:59:24.407Z,97670.47
2023-02-02T06:00:26.375Z,97672.13
2023-02-02T06:01:29.128Z,97662.66
2023-02-02T06:02:31.374Z,97665.22
2023-02-02T06:03:34.291Z,97656.56
2023-02-02T06:04:36.124Z,97666.88
2023-02-02T06:05:38.950Z,97673.69
2023-02-02T06:06:41.498Z,97666.88
2023-02-02T06:07:44.302Z,97665.03
2023-02-02T06:08:46.285Z,97659.88
2023-02-02T06:09:49.087Z,97665.03
2023-02-02T06:10:52.245Z,97664.09
2023-02-02T06:11:55.039Z,97664.09
2023-02-02T06:12:56.798Z,97665.03
2023-02-02T06:13:59.657Z,97664.09
2023-02-02T06:15:01.524Z,97661.53
2023-02-02T06:16:04.491Z,97658.94
2023-02-02T06:17:06.790Z,97663.16
2023-02-02T06:18:09.955Z,97657.31
2023-02-02T06:19:12.775Z,97664.09
2023-02-02T06:20:14.867Z,97659.88
2023-02-02T06:21:19.767Z,97664.00
2023-02-02T06:22:22.516Z,97656.38
2023-02-02T06:23:24.317Z,97663.16
2023-02-02T06:24:27.711Z,97669.97
2023-02-02T06:25:30.506Z,97652.88
2023-02-02T06:26:33.691Z,97662.22
2023-02-02T06:27:36.868Z,97663.06
2023-02-02T06:28:38.654Z,97657.91
2023-02-02T06:29:41.406Z,97664.72
2023-02-02T06:30:44.242Z,97658.75
2023-02-02T06:31:47.276Z,97669.06
2023-02-02T06:32:49.106Z,97654.50
2023-02-02T06:33:55.601Z,97660.47
2023-02-02T06:34:57.411Z,97662.22
2023-02-02T06:36:00.990Z,97672.53
2023-02-02T06:37:02.884Z,97663.16
2023-02-02T06:38:05.786Z,97662.47
2023-02-02T06:39:08.286Z,97663.38
2023-02-02T06:40:13.681Z,97668.53
2023-02-02T06:41:15.520Z,97660.91
2023-02-02T06:42:21.984Z,97666.97
2023-02-02T06:43:24.110Z,97666.25
2023-02-02T06:44:27.527Z,97664.50
2023-02-02T06:45:30.774Z,97663.69
2023-02-02T06:46:33.638Z,97671.50
2023-02-02T06:47:35.430Z,97675.00
2023-02-02T06:48:38.195Z,97663.06
2023-02-02T06:49:40.059Z,97669.97
2023-02-02T06:50:43.023Z,97663.06
2023-02-02T06:51:46.944Z,97670.78
2023-02-02T06:52:49.932Z,97665.75
2023-02-02T06:53:51.680Z,97667.38
2023-02-02T06:54:54.413Z,97657.91
2023-02-02T06:55:57.222Z,97660.50
2023-02-02T06:57:00.021Z,97669.97
2023-02-02T06:58:03.185Z,97667.38
2023-02-02T06:59:06.186Z,97672.53
2023-02-02T07:00:09.257Z,97669.97
2023-02-02T07:01:13.779Z,97670.91
2023-02-02T07:02:16.726Z,97661.50
2023-02-02T07:03:19.051Z,97671.78
2023-02-02T07:04:21.873Z,97666.88
2023-02-02T07:05:24.465Z,97664.41
2023-02-02T07:06:29.427Z,97663.78
2023-02-02T07:07:31.928Z,97656.97
2023-02-02T07:08:34.807Z,97659.63
2023-02-02T07:09:36.569Z,97659.63
2023-02-02T07:11:14.235Z,97661.50
2023-02-02T07:12:02.474Z,97653.06
2023-02-02T07:13:06.918Z,97655.53
2023-02-02T07:14:08.961Z,97651.19
2023-02-02T07:15:12.535Z,97651.31
2023-02-02T07:16:14.819Z,97654.81
2023-02-02T07:17:18.556Z,97658.41
2023-02-02T07:18:20.979Z,97656.75
2023-02-02T07:19:23.715Z,97658.50
2023-02-02T07:20:25.807Z,97656.75
2023-02-02T07:21:30.068Z,97646.56
2023-02-02T07:22:32.853Z,97653.66
2023-02-02T07:23:34.703Z,97650.25
2023-02-02T07:24:40.486Z,97653.78
2023-02-02T07:25:43.820Z,97648.69
2023-02-02T07:26:46.838Z,97641.91
2023-02-02T07:28:10.224Z,97648.09
2023-02-02T07:29:12.917Z,97645.59
2023-02-02T07:30:17.153Z,97651.56
2023-02-02T07:31:21.959Z,97642.22
2023-02-02T07:32:23.852Z,97649.94
2023-02-02T07:33:26.655Z,97639.75
2023-02-02T07:34:28.406Z,97663.84
2023-02-02T07:35:31.265Z,97650.16
2023-02-02T07:36:33.294Z,97648.56
2023-02-02T07:37:36.058Z,97647.75
2023-02-02T07:38:38.248Z,97648.69
2023-02-02T07:39:43.275Z,97653.00
2023-02-02T07:40:45.378Z,97656.47
2023-02-02T07:41:48.209Z,97655.66
2023-02-02T07:43:02.540Z,97648.28
2023-02-02T07:44:07.327Z,97637.13
2023-02-02T07:45:27.224Z,97648.28
2023-02-02T07:46:31.206Z,97641.44
2023-02-02T07:47:33.044Z,97643.19
2023-02-02T07:48:36.566Z,97637.22
2023-02-02T07:49:38.401Z,97644.13
2023-02-02T07:50:41.175Z,97640.63
2023-02-02T07:51:47.305Z,97647.41
2023-02-02T07:52:50.570Z,97638.88
2023-02-02T07:53:54.239Z,97636.31
2023-02-02T07:55:12.524Z,97639.69
2023-02-02T07:56:18.556Z,97642.28
2023-02-02T07:57:21.301Z,97634.47
2023-02-02T07:58:23.244Z,97637.75
2023-02-02T07:59:27.359Z,97630.03
2023-02-02T08:00:29.647Z,97649.69
2023-02-02T08:01:32.953Z,97648.88
2023-02-02T08:02:34.813Z,97650.44
2023-02-02T08:03:38.105Z,97641.78
2023-02-02T08:04:40.972Z,97645.19
2023-02-02T08:05:43.796Z,97649.41
2023-02-02T08:06:46.535Z,97646.00
2023-02-02T08:07:48.573Z,97644.38
2023-02-02T08:08:51.613Z,97640.16
2023-02-02T08:09:54.373Z,97646.13
2023-02-02T08:10:56.873Z,97645.28
2023-02-02T08:12:01.756Z,97650.44
2023-02-02T08:13:03.566Z,97637.66
2023-02-02T08:14:06.985Z,97636.84
2023-02-02T08:15:13.187Z,97641.97
2023-02-02T08:16:15.440Z,97648.06
2023-02-02T08:17:18.743Z,97651.44
2023-02-02T08:18:22.911Z,97648.88
2023-02-02T08:19:25.728Z,97648.88
2023-02-02T08:20:28.722Z,97644.56
2023-02-02T08:21:33.986Z,97645.59
2023-02-02T08:22:36.707Z,97650.72
2023-02-02T08:23:41.173Z,97645.59
2023-02-02T08:24:43.088Z,97660.91
2023-02-02T08:25:45.855Z,97655.78
2023-02-02T08:26:49.027Z,97655.78
2023-02-02T08:27:53.400Z,97653.19
2023-02-02T08:28:57.913Z,97655.66
2023-02-02T08:30:00.727Z,97656.59
2023-02-02T08:31:08.686Z,97660.00
2023-02-02T08:32:11.632Z,97648.06
2023-02-02T08:33:13.939Z,97655.78
2023-02-02T08:34:16.696Z,97671.22
2023-02-02T08:35:19.326Z,97662.66
2023-02-02T08:36:24.076Z,97661.03
2023-02-02T08:37:25.898Z,97662.78
2023-02-02T08:38:28.647Z,97667.91
2023-02-02T08:39:31.512Z,97663.72
2023-02-02T08:40:33.543Z,97671.41
2023-02-02T08:41:37.596Z,97669.75
2023-02-02T08:42:39.758Z,97669.75
2023-02-02T08:43:42.807Z,97665.63
2023-02-02T08:45:59.661Z,97667.38
2023-02-02T08:46:10.016Z,97674.34
2023-02-02T08:47:11.849Z,97657.28
2023-02-02T08:48:17.126Z,97661.59
2023-02-02T08:49:38.548Z,97672.81
2023-02-02T08:50:40.873Z,97672.81
2023-02-02T08:51:43.652Z,97671.19
2023-02-02T08:52:45.480Z,97674.56
2023-02-02T08:53:48.387Z,97679.72
2023-02-02T08:54:51.137Z,97676.22
2023-02-02T08:55:58.505Z,97673.66
2023-02-02T08:57:01.569Z,97672.72
2023-02-02T08:58:03.343Z,97679.50
2023-02-02T08:59:06.642Z,97676.03
2023-02-02T09:00:11.743Z,97679.31
2023-02-02T09:01:17.112Z,97679.31
2023-02-02T09:02:19.949Z,97672.44
2023-02-02T09:03:23.150Z,97680.97
2023-02-02T09:04:25.921Z,97675.81
2023-02-02T09:05:28.050Z,97673.13
2023-02-02T09:06:33.056Z,97681.59
2023-02-02T09:07:35.805Z,97684.19
2023-02-02T09:08:38.409Z,97681.59
2023-02-02T09:10:00.670Z,97677.56
2023-02-02T09:11:07.121Z,97689.50
2023-02-02T09:12:09.931Z,97695.56
2023-02-02T09:13:11.952Z,97690.44
2023-02-02T09:14:15.305Z,97691.25
2023-02-02T09:15:18.282Z,97687.75
2023-02-02T09:16:23.189Z,97686.13
2023-02-02T09:17:25.968Z,97693.81
2023-02-02T09:18:27.796Z,97697.31
2023-02-02T09:19:30.649Z,97698.97
2023-02-02T09:20:33.474Z,97695.56
2023-02-02T09:21:37.304Z,97694.75
2023-02-02T09:22:39.367Z,97698.97
2023-02-02T09:23:43.258Z,97696.41
2023-02-02T09:24:45.084Z,97699.91
2023-02-02T09:25:48.300Z,97696.41
2023-02-02T09:26:51.214Z,97702.38
2023-02-02T09:27:53.275Z,97709.16
2023-02-02T09:28:57.714Z,97704.88
2023-02-02T09:29:59.492Z,97698.78
2023-02-02T09:31:02.418Z,97695.28
2023-02-02T09:32:06.857Z,97694.38
2023-02-02T09:33:08.739Z,97698.50
2023-02-02T09:34:14.217Z,97700.22
2023-02-02T09:35:16.298Z,97712.06
2023-02-02T09:36:21.630Z,97705.06
2023-02-02T09:37:24.442Z,97704.06
2023-02-02T09:38:27.409Z,97709.22
2023-02-02T09:39:30.262Z,97706.53
2023-02-02T09:40:33.647Z,97709.84
2023-02-02T09:42:13.455Z,97707.88
2023-02-02T09:43:28.265Z,97712.09
2023-02-02T09:44:47.192Z,97720.56
2023-02-02T09:45:56.424Z,97710.06
2023-02-02T09:47:08.591Z,97722.84
2023-02-02T09:48:20.888Z,97714.00
2023-02-02T09:49:27.187Z,97726.88
2023-02-02T09:50:40.150Z,97717.41
2023-02-02T09:51:46.106Z,97725.72
2023-02-02T09:52:51.658Z,97719.47
2023-02-02T09:53:56.493Z,97724.50
2023-02-02T09:55:03.343Z,97729.47
2023-02-02T09:56:08.072Z,97735.25
2023-02-02T09:57:14.041Z,97722.16
2023-02-02T09:58:20.523Z,97733.09
2023-02-02T09:59:25.570Z,97739.78
2023-02-02T10:00:29.979Z,97737.84
2023-02-02T10:01:36.497Z,97736.09
2023-02-02T10:02:44.353Z,97739.41
2023-02-02T10:03:59.393Z,97726.41
2023-02-02T10:05:08.882Z,97739.28
2023-02-02T10:06:22.440Z,97738.38
2023-02-02T10:07:29.085Z,97734.97
2023-02-02T10:08:35.819Z,97740.81
2023-02-02T10:09:43.521Z,97743.31
2023-02-02T10:10:46.118Z,97742.41
2023-02-02T10:11:52.758Z,97744.78
2023-02-02T10:12:58.000Z,97744.66
2023-02-02T10:14:04.228Z,97743.63
2023-02-02T10:15:13.419Z,97741.78
2023-02-02T10:16:18.827Z,97739.09
2023-02-02T10:17:42.141Z,97740.63
2023-02-02T10:18:49.976Z,97738.81
2023-02-02T10:19:56.568Z,97750.56
2023-02-02T10:21:01.302Z,97741.78
2023-02-02T10:22:08.099Z,97747.56
2023-02-02T10:23:16.355Z,97743.06
2023-02-02T10:24:21.062Z,97744.59
2023-02-02T10:25:27.509Z,97747.88
2023-02-02T10:26:36.960Z,97745.09
2023-02-02T10:27:41.302Z,97755.22
2023-02-02T10:28:57.103Z,97754.28
2023-02-02T10:30:01.358Z,97750.75
2023-02-02T10:31:04.610Z,97754.16
2023-02-02T10:32:13.906Z,97766.03
2023-02-02T10:33:22.415Z,97763.47
2023-02-02T10:34:27.895Z,97755.72
2023-02-02T10:35:37.203Z,97757.16
2023-02-02T10:36:48.831Z,97769.94
2023-02-02T10:37:56.930Z,97759.41
2023-02-02T10:39:04.116Z,97772.22
2023-02-02T10:40:17.100Z,97773.75
2023-02-02T10:41:26.168Z,97771.06
2023-02-02T10:42:36.933Z,97776.13
2023-02-02T10:44:05.728Z,97770.16
2023-02-02T10:45:14.412Z,97770.25
2023-02-02T10:46:20.446Z,97766.66
2023-02-02T10:47:27.040Z,97778.50
2023-02-02T10:48:35.712Z,97782.50
2023-02-02T10:49:40.020Z,97771.25
2023-02-02T10:50:43.444Z,97775.41
2023-02-02T10:51:51.554Z,97784.66
2023-02-02T10:52:55.589Z,97780.25
2023-02-02T10:54:00.038Z,97773.22
2023-02-02T10:55:05.746Z,97771.34
2023-02-02T10:56:11.773Z,97790.97
2023-02-02T10:57:18.083Z,97786.50
2023-02-02T10:58:25.855Z,97771.78
2023-02-02T10:59:31.823Z,97792.31
2023-02-02T11:00:38.500Z,97780.22
2023-02-02T11:01:41.585Z,97783.50
2023-02-02T11:02:43.739Z,97790.22
2023-02-02T11:03:47.920Z,97797.66
2023-02-02T11:05:08.568Z,97788.03
2023-02-02T11:06:31.114Z,97788.88
2023-02-02T11:07:33.283Z,97792.19
2023-02-02T11:08:37.575Z,97792.78
2023-02-02T11:09:41.190Z,97784.13
2023-02-02T11:10:45.639Z,97795.84
2023-02-02T11:11:51.044Z,97798.25
2023-02-02T11:12:56.816Z,97792.06
2023-02-02T11:14:02.788Z,97798.75
2023-02-02T11:15:08.362Z,97788.31
2023-02-02T11:16:22.922Z,97783.06
2023-02-02T11:17:27.065Z,97801.72
2023-02-02T11:18:31.629Z,97798.81
2023-02-02T11:19:37.623Z,97793.44
2023-02-02T11:20:39.500Z,97796.72
2023-02-02T11:21:42.272Z,97799.13
2023-02-02T11:22:44.969Z,97796.41
2023-02-02T11:24:00.531Z,97791.88
2023-02-02T11:25:06.114Z,97798.56
2023-02-02T11:26:07.876Z,97791.63
2023-02-02T11:27:15.431Z,97805.28
2023-02-02T11:28:21.162Z,97800.69
2023-02-02T11:29:28.892Z,97798.84
2023-02-02T11:30:34.439Z,97789.34
2023-02-02T11:31:38.338Z,97792.88
2023-02-02T11:32:41.858Z,97800.50
2023-02-02T11:33:45.146Z,97800.38
2023-02-02T11:34:49.393Z,97810.50
2023-02-02T11:35:56.875Z,97795.81
2023-02-02T11:37:01.215Z,97805.09
2023-02-02T11:38:11.476Z,97804.19
2023-02-02T11:39:19.393Z,97801.59
2023-02-02T11:40:29.320Z,97808.28
2023-02-02T11:41:31.605Z,97798.09
2023-02-02T11:42:34.923Z,97811.59
2023-02-02T11:43:41.351Z,97810.75
2023-02-02T11:44:48.257Z,97813.25
2023-02-02T11:45:54.867Z,97810.75
2023-02-02T11:46:57.896Z,97808.16
2023-02-02T11:48:07.128Z,97814.19
2023-02-02T11:49:17.883Z,97813.25
2023-02-02T11:50:26.599Z,97806.19
2023-02-02T11:51:31.067Z,97817.47
2023-02-02T11:52:34.314Z,97822.53
2023-02-02T11:53:41.392Z,97820.88
2023-02-02T11:54:49.016Z,97826.03
2023-02-02T11:55:51.309Z,97825.22
2023-02-02T11:56:55.303Z,97824.59
2023-02-02T11:58:27.313Z,97834.22
2023-02-02T11:59:32.417Z,97837.75
2023-02-02T12:00:35.164Z,97847.16
2023-02-02T12:01:41.332Z,97842.91
2023-02-02T12:02:47.131Z,97836.09
2023-02-02T12:03:50.015Z,97843.00
2023-02-02T12:04:54.233Z,97847.16
2023-02-02T12:05:58.933Z,97838.56
2023-02-02T12:07:01.772Z,97851.56
2023-02-02T12:08:04.958Z,97845.59
2023-02-02T12:09:13.129Z,97846.66
2023-02-02T12:10:19.739Z,97841.25
2023-02-02T12:11:40.821Z,97855.84
2023-02-02T12:12:45.822Z,97848.91
2023-02-02T12:13:55.374Z,97852.50
2023-02-02T12:15:04.487Z,97845.81
2023-02-02T12:16:16.510Z,97868.81
2023-02-02T12:17:31.690Z,97867.06
2023-02-02T12:18:42.533Z,97871.31
2023-02-02T12:20:06.195Z,97869.66
2023-02-02T12:21:13.621Z,97866.25
2023-02-02T12:22:28.399Z,97865.41
2023-02-02T12:23:46.781Z,97878.34
2023-02-02T12:24:54.050Z,97862.84
2023-02-02T12:26:11.006Z,97872.22
2023-02-02T12:27:19.816Z,97876.50
2023-02-02T12:28:31.504Z,97882.47
2023-02-02T12:29:45.687Z,97873.16
2023-02-02T12:30:54.962Z,97884.31
2023-02-02T12:32:10.499Z,97892.81
2023-02-02T12:33:33.364Z,97868.81
2023-02-02T12:34:41.728Z,97876.56
2023-02-02T12:35:54.513Z,97885.16
2023-02-02T12:37:03.925Z,97889.59
2023-02-02T12:38:13.273Z,97902.50
2023-02-02T12:39:28.194Z,97892.19
2023-02-02T12:40:44.503Z,97890.44
2023-02-02T12:42:10.226Z,97890.44
2023-02-02T12:43:23.094Z,97893.81
2023-02-02T12:44:32.759Z,97889.41
2023-02-02T12:45:57.116Z,97890.44
2023-02-02T12:47:14.508Z,97896.31
2023-02-02T12:48:27.845Z,97898.78